• Join FlightAware (Why Join?)
  • Login
  • US Flag 
02:05AM EST


 

Airport Tracker/Info


-or-


 

Live Flight TrackerFlight Track Log ✈ ASQ5929 ✈ 30-Apr-2013 ✈ KCVG - KORD

Flight Track Log - Related Links

Times and Time Zones

All times are in EDT time to prevent confusion due to time zone crossing. See the ASQ5929 flight status page for this flight to view local times or setup timezone preferences in your user account.

Time Position Orientation Groundspeed Altitude Reporting Facility
EDT Latitude Longitude Course Direction KTS MPH feet Rate Location/Type
05:24PM 39.0500 -84.6833 351° North 182 209 1,500  Level Cincinnati TRACON
05:24PM 39.0500 -84.7167 270° West 185 213 2,500 2,040 Climbing Cincinnati TRACON
05:25PM 39.0500 -84.8000 270° West 268 308 4,400 2,400 Climbing Cincinnati TRACON
05:26PM 39.1000 -84.8667 314° West 270 311 7,100 2,400 Climbing Cincinnati TRACON
05:27PM 38.9354 -84.8145 308° West  Level FlightAware Approximate
05:27PM 39.1472 -84.8819 346° North 279 321 8,900  Level Indianapolis Center
05:28PM 38.9902 -84.8745 345° North  Level FlightAware Approximate
05:28PM 39.2258 -84.9083 345° North 289 333 10,600  Level Indianapolis Center
05:29PM 39.0642 -84.8928 351° North  Level FlightAware Approximate
05:29PM 39.3356 -84.9431 346° North 341 392 12,400  Level Indianapolis Center
05:30PM 39.4300 -84.9744 346° North 349 402 14,400 1,500 Climbing Indianapolis Center
05:31PM 39.5225 -85.0228 338° Northwest 362 417 15,600 1,020 Climbing Indianapolis Center
05:32PM 39.6153 -85.0847 333° Northwest 372 428 16,600 960 Climbing Indianapolis Center
05:33PM 39.7114 -85.1494 333° Northwest 385 443 17,600 660 Climbing Indianapolis Center
05:34PM 39.8267 -85.2272 333° Northwest 396 456 18,000 180 Climbing Indianapolis Center
05:35PM 39.9294 -85.2956 333° Northwest 408 470 18,000  Level Indianapolis Center
05:36PM 40.0319 -85.3642 333° Northwest 412 474 18,000  Level Indianapolis Center
05:37PM 40.1311 -85.4325 332° Northwest 406 467 18,000 420 Level Indianapolis Center
05:38PM 40.2311 -85.4986 333° Northwest 404 465 18,900 960 Climbing Chicago Center
05:39PM 40.3331 -85.5686 332° Northwest 411 473 19,900 480 Climbing Chicago Center
05:40PM 40.4381 -85.6386 333° Northwest 421 484 20,000  Climbing Chicago Center
05:41PM 40.5506 -85.6992 338° Northwest 433 498 20,000  Level Chicago Center
05:42PM 40.6450 -85.7908 324° Northwest 430 495 20,000  Level Chicago Center
05:43PM 40.7214 -85.9375 305° West 430 495 20,000  Level Chicago Center
05:44PM 40.7892 -86.0661 305° West 427 491 20,000  Level Chicago Center
05:45PM 40.8567 -86.1967 304° West 430 495 20,000 -540 Level Chicago Center
05:46PM 40.9242 -86.3269 304° West 429 494 18,900 -1,020 Descending Chicago Center
05:47PM 40.9869 -86.4517 304° West 412 474 17,900 -900 Descending Chicago Center
05:48PM 41.0528 -86.5758 305° West 410 472 17,100 -420 Descending Chicago Center
05:49PM 41.1133 -86.6972 304° West 396 456 17,100  Level Chicago Center
05:50PM 41.1783 -86.8253 304° West 400 460 17,100 -1,140 Level Chicago Center
05:52PM 41.2514 -86.9678 304° West 391 450 14,800 -2,700 Descending Chicago Center
05:53PM 41.3075 -87.0811 303° West 374 430 11,600 -1,860 Descending Chicago Center
05:54PM 41.3633 -87.1892 305° West 359 413 11,000 -300 Descending Chicago Center
05:55PM 41.4336 -87.2767 317° Northwest 351 404 11,000  Level Chicago Center
05:55PM 41.5000 -87.3667 315° West 355 409 11,000  Level Chicago TRACON
05:56PM 41.5833 -87.4500 323° Northwest 358 412 11,000  Level Chicago TRACON
05:57PM 41.6667 -87.5333 323° Northwest 356 410 11,000  Level Chicago TRACON
05:58PM 41.6731 -87.5483 300° West 357 411 11,000 -660 Level Chicago Center
05:59PM 41.7403 -87.6231 320° Northwest 314 361 10,200 -1,320 Descending Chicago Center
05:59PM 41.7833 -87.6833 314° West 288 331 8,800 -1,860 Descending Chicago TRACON
06:00PM 41.8500 -87.7333 331° Northwest 289 333 7,100 -900 Descending Chicago TRACON
06:01PM 41.9333 -87.7500 352° North 288 331 7,000 -660 Descending Chicago TRACON
06:02PM 42.0000 -87.7000 29° Northeast 246 283 5,800 -1,440 Descending Chicago TRACON
06:03PM 42.0500 -87.6500 37° Northeast 230 265 4,200 -1,380 Descending Chicago TRACON
06:05PM 42.0833 -87.7167 304° West 197 227 3,000 -600 Descending Chicago TRACON
06:06PM 42.0667 -87.7667 246° West 171 197 3,000  Level Chicago TRACON